Time;durP1;ratioP1;P1;durP2;ratioP2;P2;SDS_P1;SDS_P2;PMS_P1;PMS_P2;Temp;Humidity;BMP_temperature;BMP_pressure;BME280_temperature;BME280_humidity;BME280_pressure;Samples;Min_cycle;Max_cycle;Signal;HPM_P1;HPM_P2
2021/05/10 00:01:35;;;;;;;;;1.00;1.00;;;;;17.13;48.78;98320.63;4777702;29;102336;-74
2021/05/10 00:04:02;;;;;;;;;2.00;2.00;;;;;17.13;48.56;98317.91;4773204;29;104157;-74
2021/05/10 00:06:30;;;;;;;;;2.67;1.67;;;;;17.14;48.28;98317.66;4774217;29;103653;-74
2021/05/10 00:08:57;;;;;;;;;2.00;2.00;;;;;17.13;48.74;98323.38;4776453;29;103955;-75
2021/05/10 00:11:25;;;;;;;;;1.00;1.00;;;;;17.14;48.71;98311.38;4765768;29;102335;-75
2021/05/10 00:13:53;;;;;;;;;1.00;1.00;;;;;17.13;49.00;98307.81;4777837;29;104097;-74
2021/05/10 00:16:21;;;;;;;;;2.00;2.00;;;;;17.13;48.85;98312.44;4705486;29;104214;-74
2021/05/10 00:18:56;;;;;;;;;2.00;1.00;;;;;17.13;49.04;98316.00;4769492;29;102159;-74
2021/05/10 00:21:28;;;;;;;;;1.00;1.00;;;;;17.12;48.81;98308.88;4775832;29;102800;-75
2021/05/10 00:24:04;;;;;;;;;2.00;2.00;;;;;17.10;47.88;98304.75;4770815;29;107643;-74
2021/05/10 00:26:35;;;;;;;;;2.00;2.00;;;;;17.12;48.34;98308.88;4772469;29;102215;-74
2021/05/10 00:29:10;;;;;;;;;2.00;1.00;;;;;17.11;48.54;98306.41;4773203;29;110269;-74
2021/05/10 00:31:42;;;;;;;;;2.00;2.00;;;;;17.09;49.15;98308.56;4776959;29;102339;-74
2021/05/10 00:34:16;;;;;;;;;2.33;2.00;;;;;17.10;48.67;98307.47;4772621;29;103561;-74
2021/05/10 00:36:50;;;;;;;;;3.00;2.00;;;;;17.09;48.17;98314.00;4776931;29;102345;-74
2021/05/10 00:39:22;;;;;;;;;1.67;1.67;;;;;17.08;48.28;98306.88;4774230;29;102292;-74
2021/05/10 00:41:58;;;;;;;;;2.00;1.33;;;;;17.07;48.29;98302.50;4772311;29;103592;-75
2021/05/10 00:44:31;;;;;;;;;1.00;1.00;;;;;17.06;48.87;98304.44;4764850;29;107913;-74
2021/05/10 00:47:06;;;;;;;;;2.00;1.67;;;;;17.05;48.63;98302.75;4770658;29;102109;-74
2021/05/10 00:49:38;;;;;;;;;1.67;1.67;;;;;17.07;49.21;98307.97;4774135;29;102290;-74
2021/05/10 00:52:11;;;;;;;;;2.67;2.00;;;;;17.05;48.68;98291.00;4774135;29;103887;-74
2021/05/10 00:54:45;;;;;;;;;1.33;1.33;;;;;17.05;48.54;98301.94;4770843;29;103676;-75
2021/05/10 00:57:18;;;;;;;;;1.00;1.00;;;;;17.06;49.12;98298.13;4775622;29;103024;-74
2021/05/10 00:59:52;;;;;;;;;1.00;1.00;;;;;17.05;49.21;98307.41;4770094;29;105409;-74
2021/05/10 01:02:26;;;;;;;;;1.00;1.00;;;;;17.01;49.02;98298.06;4770822;29;111154;-75
2021/05/10 01:05:02;;;;;;;;;1.00;1.00;;;;;17.04;49.29;98305.72;4752231;29;103115;-75
2021/05/10 01:07:34;;;;;;;;;2.00;1.33;;;;;17.04;49.59;98305.72;4764990;29;103712;-75
2021/05/10 01:10:16;;;;;;;;;1.67;1.33;;;;;17.02;49.47;98307.91;4762028;29;103064;-74
2021/05/10 01:12:48;;;;;;;;;1.00;1.00;;;;;17.03;49.96;98299.44;4765440;29;102272;-74
2021/05/10 01:15:26;;;;;;;;;1.00;1.00;;;;;17.02;49.83;98302.44;4738338;29;104053;-78
2021/05/10 01:18:03;;;;;;;;;3.00;3.00;;;;;17.00;49.55;98297.22;4758997;29;103408;-78
2021/05/10 01:20:34;;;;;;;;;1.00;1.00;;;;;17.01;49.84;98298.88;4764062;29;102509;-77
2021/05/10 01:23:07;;;;;;;;;1.00;1.00;;;;;17.02;49.86;98299.72;4771081;29;102541;-78
2021/05/10 01:25:42;;;;;;;;;1.00;1.00;;;;;17.02;49.90;98288.78;4762810;29;108544;-77
2021/05/10 01:28:19;;;;;;;;;1.67;1.00;;;;;17.01;50.21;98298.06;4774792;29;102916;-79
2021/05/10 01:30:54;;;;;;;;;2.00;1.00;;;;;17.02;49.49;98302.44;4777721;29;103495;-78
2021/05/10 01:33:28;;;;;;;;;1.00;1.00;;;;;17.02;50.01;98305.19;4780753;29;102691;-78
2021/05/10 01:36:01;;;;;;;;;1.00;1.00;;;;;17.01;49.88;98300.78;4775699;29;103052;-78
2021/05/10 01:38:36;;;;;;;;;1.00;1.00;;;;;17.02;49.99;98307.91;4780013;29;103418;-78
2021/05/10 01:41:09;;;;;;;;;1.00;1.00;;;;;17.01;50.44;98307.06;4778801;29;102815;-76
2021/05/10 01:43:44;;;;;;;;;1.33;1.33;;;;;17.01;50.06;98312.53;4782907;29;103158;-78
2021/05/10 01:46:16;;;;;;;;;2.00;2.00;;;;;17.00;50.28;98304.59;4774448;29;103626;-74
2021/05/10 01:48:51;;;;;;;;;1.00;1.00;;;;;17.01;50.01;98300.78;4784033;29;104979;-74
2021/05/10 01:51:26;;;;;;;;;1.00;1.00;;;;;17.01;50.49;98308.97;4776840;29;102518;-74
2021/05/10 01:54:00;;;;;;;;;2.67;2.00;;;;;17.02;49.83;98308.72;4781946;29;102343;-74
2021/05/10 01:56:37;;;;;;;;;2.00;2.00;;;;;17.01;49.82;98295.31;4777217;29;104168;-75
2021/05/10 01:59:10;;;;;;;;;0.67;0.67;;;;;17.02;49.37;98296.97;4779323;29;104772;-74
2021/05/10 02:01:46;;;;;;;;;1.00;1.00;;;;;17.02;49.35;98299.72;4780714;29;102436;-74
2021/05/10 02:04:18;;;;;;;;;2.00;1.00;;;;;17.01;50.45;98295.31;4780271;29;102958;-74
2021/05/10 02:06:50;;;;;;;;;2.00;2.00;;;;;17.00;49.81;98296.38;4776227;29;103276;-74
2021/05/10 02:09:34;;;;;;;;;1.33;1.00;;;;;17.01;50.07;98301.63;4778331;29;102230;-75
2021/05/10 02:12:10;;;;;;;;;2.00;2.00;;;;;16.99;50.34;98292.00;4782834;29;102296;-74
2021/05/10 02:14:43;;;;;;;;;1.00;1.00;;;;;16.98;49.63;98298.53;4790504;29;103591;-77
2021/05/10 02:17:15;;;;;;;;;1.00;1.00;;;;;16.97;49.51;98299.63;4772441;29;102681;-79
2021/05/10 02:19:50;;;;;;;;;1.00;1.00;;;;;16.98;50.13;98298.53;4763589;29;102237;-78
2021/05/10 02:22:24;;;;;;;;;1.33;1.00;;;;;16.95;50.21;98284.31;4780824;29;102121;-78
2021/05/10 02:24:59;;;;;;;;;2.00;2.00;;;;;16.95;50.17;98292.50;4779001;29;102584;-78
2021/05/10 02:27:35;;;;;;;;;1.00;1.00;;;;;16.96;50.12;98304.25;4780088;29;103095;-78
2021/05/10 02:30:08;;;;;;;;;0.33;0.33;;;;;16.95;49.79;98306.16;4782582;29;103752;-79
2021/05/10 02:32:44;;;;;;;;;1.00;0.67;;;;;16.93;50.41;98307.50;4772585;29;102275;-79
2021/05/10 02:35:18;;;;;;;;;2.00;2.00;;;;;16.91;50.65;98302.28;4777633;29;102790;-78
2021/05/10 02:37:54;;;;;;;;;2.75;2.00;;;;;16.92;50.11;98305.84;4781066;29;103917;-79
2021/05/10 02:40:26;;;;;;;;;2.00;2.00;;;;;16.90;49.67;98299.78;4781007;29;102250;-78
2021/05/10 02:43:05;;;;;;;;;1.33;1.33;;;;;16.88;49.62;98302.78;4773883;29;102459;-78
2021/05/10 02:45:46;;;;;;;;;1.00;1.00;;;;;16.87;50.19;98298.38;4779518;29;105730;-75
2021/05/10 02:48:18;;;;;;;;;3.00;2.00;;;;;16.87;50.82;98298.38;4762795;29;103107;-78
2021/05/10 02:50:54;;;;;;;;;0.00;0.00;;;;;16.84;50.61;98290.69;4777867;29;103271;-78
2021/05/10 02:53:26;;;;;;;;;2.50;2.00;;;;;16.84;50.30;98296.13;4777462;29;102902;-78
2021/05/10 02:55:57;;;;;;;;;2.00;2.00;;;;;16.83;50.66;98294.50;4780896;29;102231;-78
2021/05/10 02:58:24;;;;;;;;;1.00;1.00;;;;;16.81;49.97;98284.88;4779276;29;104052;-78
2021/05/10 03:00:51;;;;;;;;;1.33;1.00;;;;;16.82;50.38;98289.28;4769350;29;103729;-78
2021/05/10 03:03:17;;;;;;;;;1.00;1.00;;;;;16.82;50.53;98287.38;4779796;29;102158;-78
2021/05/10 03:05:45;;;;;;;;;1.00;1.00;;;;;16.82;50.47;98284.66;4777375;29;102384;-79
2021/05/10 03:08:11;;;;;;;;;2.00;1.00;;;;;16.81;50.77;98290.34;4778252;29;104099;-75
2021/05/10 03:10:38;;;;;;;;;1.67;1.00;;;;;16.79;50.30;98282.44;4780122;29;103003;-78
2021/05/10 03:13:05;;;;;;;;;1.33;1.00;;;;;16.77;50.78;98272.81;4773265;29;102099;-78
2021/05/10 03:15:31;;;;;;;;;1.00;1.00;;;;;16.77;50.60;98283.72;4776421;29;104096;-78
2021/05/10 03:17:58;;;;;;;;;1.00;1.00;;;;;16.77;49.95;98279.09;4779072;29;104153;-79
2021/05/10 03:20:25;;;;;;;;;0.00;0.00;;;;;16.78;50.59;98280.78;4771565;29;102386;-79
2021/05/10 03:22:52;;;;;;;;;1.67;1.67;;;;;16.78;50.52;98280.78;4779666;29;102513;-78
2021/05/10 03:25:22;;;;;;;;;2.00;1.00;;;;;16.77;50.22;98284.56;4774726;29;102352;-77
2021/05/10 03:27:51;;;;;;;;;1.00;1.00;;;;;16.77;50.04;98281.84;4777499;29;104112;-77
2021/05/10 03:30:22;;;;;;;;;1.25;1.25;;;;;16.79;50.75;98287.06;4778327;29;103115;-77
2021/05/10 03:32:49;;;;;;;;;1.00;1.00;;;;;16.78;50.77;98291.69;4778776;29;102162;-78
2021/05/10 03:35:16;;;;;;;;;1.33;1.33;;;;;16.76;50.21;98282.06;4773146;29;102536;-77
2021/05/10 03:37:44;;;;;;;;;0.33;0.33;;;;;16.75;50.36;98286.69;4777038;29;104143;-78
2021/05/10 03:40:14;;;;;;;;;1.00;1.00;;;;;16.75;50.23;98297.63;4769983;29;102910;-77
2021/05/10 03:42:42;;;;;;;;;1.00;1.00;;;;;16.76;49.89;98293.81;4782323;29;103043;-78
2021/05/10 03:45:09;;;;;;;;;1.00;1.00;;;;;16.76;50.52;98291.09;4778251;29;102602;-79
2021/05/10 03:47:39;;;;;;;;;1.67;1.00;;;;;16.76;50.56;98295.72;4776778;29;104106;-78
2021/05/10 03:50:14;;;;;;;;;1.00;1.00;;;;;16.78;50.29;98297.16;4777304;29;102740;-78
2021/05/10 03:52:41;;;;;;;;;1.00;1.00;;;;;16.75;50.27;98292.16;4772767;29;102425;-78
2021/05/10 03:55:08;;;;;;;;;1.00;1.00;;;;;16.76;50.91;98293.81;4777162;29;102730;-78
2021/05/10 03:57:35;;;;;;;;;2.00;1.00;;;;;16.76;50.95;98291.09;4773436;29;104075;-78
2021/05/10 04:00:04;;;;;;;;;2.00;2.00;;;;;16.76;50.66;98290.25;4767699;29;103355;-78
2021/05/10 04:02:32;;;;;;;;;1.67;1.67;;;;;16.77;50.31;98283.72;4775621;29;103381;-78
2021/05/10 04:07:56;;;;;;;;;2.33;1.67;;;;;16.74;50.56;98282.34;4771834;29;109083;-78
2021/05/10 04:10:44;;;;;;;;;1.25;1.25;;;;;16.73;50.55;98294.34;4778024;29;104352;-78
2021/05/10 04:15:56;;;;;;;;;1.00;1.00;;;;;16.73;51.30;98286.13;4718618;29;102279;-74
2021/05/10 04:18:23;;;;;;;;;0.67;0.67;;;;;16.78;50.92;98285.41;4775609;29;104077;-74
2021/05/10 04:20:50;;;;;;;;;0.67;0.67;;;;;16.80;51.08;98292.25;4779603;29;102149;-74
2021/05/10 04:23:19;;;;;;;;;2.00;1.00;;;;;16.83;51.34;98288.22;4774680;29;104760;-74
2021/05/10 04:25:46;;;;;;;;;1.67;1.67;;;;;16.82;51.71;98290.13;4779227;29;102200;-74
2021/05/10 04:28:13;;;;;;;;;1.25;1.25;;;;;16.83;51.73;98293.69;4776193;29;104063;-74
2021/05/10 04:30:45;;;;;;;;;0.67;0.67;;;;;16.84;51.56;98295.34;4779325;29;103201;-74
2021/05/10 04:33:12;;;;;;;;;1.00;1.00;;;;;16.85;51.23;98295.06;4778064;29;103291;-74
2021/05/10 04:35:39;;;;;;;;;1.67;1.00;;;;;16.81;51.50;98293.91;4775774;29;104114;-74
2021/05/10 04:38:10;;;;;;;;;1.33;1.00;;;;;16.83;52.14;98291.78;4776256;29;104259;-74
2021/05/10 04:40:37;;;;;;;;;2.33;1.00;;;;;16.83;51.66;98297.25;4777499;29;102450;-74
2021/05/10 04:43:05;;;;;;;;;2.00;2.00;;;;;16.83;52.32;98296.41;4781269;29;102877;-74
2021/05/10 04:45:32;;;;;;;;;0.67;0.67;;;;;16.84;51.72;98298.06;4774712;29;102201;-78
2021/05/10 04:47:58;;;;;;;;;1.00;1.00;;;;;16.84;52.50;98295.34;4777331;29;103984;-78
2021/05/10 04:50:25;;;;;;;;;1.00;1.00;;;;;16.85;53.14;98296.97;4774900;29;102487;-78
2021/05/10 04:52:52;;;;;;;;;1.00;1.00;;;;;16.84;52.17;98296.13;4777902;29;102370;-78
2021/05/10 04:55:18;;;;;;;;;0.00;0.00;;;;;16.84;52.14;98298.88;4777312;29;104091;-78
2021/05/10 04:57:45;;;;;;;;;0.00;0.00;;;;;16.86;52.23;98304.09;4783390;29;104183;-77
2021/05/10 05:00:13;;;;;;;;;1.00;1.00;;;;;16.84;52.98;98290.69;4781178;29;103421;-77
2021/05/10 05:02:40;;;;;;;;;1.00;1.00;;;;;16.85;52.82;98308.72;4779923;29;102263;-77
2021/05/10 05:05:08;;;;;;;;;1.00;1.00;;;;;16.81;52.45;98299.38;4782682;29;102600;-78
2021/05/10 05:07:35;;;;;;;;;2.00;1.00;;;;;16.82;53.87;98297.47;4778274;29;104142;-77
2021/05/10 05:10:02;;;;;;;;;1.00;1.00;;;;;16.84;52.76;98296.13;4780400;29;102284;-78
2021/05/10 05:12:29;;;;;;;;;1.00;1.00;;;;;16.85;52.77;98292.34;4776349;29;104781;-78
2021/05/10 05:14:58;;;;;;;;;1.00;1.00;;;;;16.86;53.90;98287.72;4778876;29;102880;-77
2021/05/10 05:17:24;;;;;;;;;1.00;1.00;;;;;16.85;54.67;98292.34;4777212;29;104027;-77
2021/05/10 05:19:51;;;;;;;;;1.00;0.00;;;;;16.85;54.60;98303.25;4776573;29;104129;-78
2021/05/10 05:22:18;;;;;;;;;1.00;1.00;;;;;16.85;55.02;98300.53;4777507;29;102630;-77
2021/05/10 05:24:45;;;;;;;;;1.00;1.00;;;;;16.87;55.24;98308.47;4786939;29;102545;-77
2021/05/10 05:27:11;;;;;;;;;1.67;1.00;;;;;16.86;54.23;98298.63;4782949;29;105903;-77
2021/05/10 05:29:38;;;;;;;;;0.00;0.00;;;;;16.86;54.22;98302.19;4779415;29;103312;-77
2021/05/10 05:32:06;;;;;;;;;1.00;1.00;;;;;16.86;54.98;98304.91;4772549;29;102440;-77
2021/05/10 05:34:33;;;;;;;;;0.67;0.33;;;;;16.85;55.22;98303.25;4790038;29;104214;-77
2021/05/10 05:37:00;;;;;;;;;2.00;1.00;;;;;16.85;54.85;98296.97;4784146;29;104389;-77
2021/05/10 05:39:27;;;;;;;;;0.67;0.67;;;;;16.85;55.84;98296.97;4783803;29;102213;-78
2021/05/10 05:41:53;;;;;;;;;0.00;0.00;;;;;16.84;55.83;98296.13;4784844;29;102363;-78
2021/05/10 05:44:20;;;;;;;;;1.00;1.00;;;;;16.85;55.49;98302.44;4788399;29;104708;-74
2021/05/10 05:46:49;;;;;;;;;0.67;0.67;;;;;16.85;55.87;98294.25;4786066;29;104157;-74
2021/05/10 05:49:16;;;;;;;;;0.67;0.00;;;;;16.86;55.36;98301.38;4781846;29;102181;-74
2021/05/10 05:51:46;;;;;;;;;1.00;1.00;;;;;16.84;53.58;98289.88;4780446;29;102565;-74
2021/05/10 05:54:13;;;;;;;;;0.00;0.00;;;;;16.85;54.49;98299.69;4789350;29;102300;-75
2021/05/10 05:56:40;;;;;;;;;2.00;0.33;;;;;16.85;55.02;98288.78;4782222;29;109455;-74
2021/05/10 05:59:07;;;;;;;;;0.00;0.00;;;;;16.86;55.29;98294.00;4786943;29;102242;-75
2021/05/10 06:01:33;;;;;;;;;0.00;0.00;;;;;16.86;54.96;98287.72;4783800;29;102334;-75
2021/05/10 06:04:00;;;;;;;;;1.00;1.00;;;;;16.85;55.27;98286.03;4779547;29;102156;-74
2021/05/10 06:06:27;;;;;;;;;0.00;0.00;;;;;16.85;55.29;98288.78;4780209;29;104292;-75
2021/05/10 06:08:55;;;;;;;;;0.00;0.00;;;;;16.84;55.56;98287.94;4784556;29;104537;-75
2021/05/10 06:11:24;;;;;;;;;1.00;0.00;;;;;16.84;54.82;98293.41;4784085;29;102467;-74
2021/05/10 06:13:51;;;;;;;;;1.00;1.00;;;;;16.85;55.47;98295.06;4786677;29;102657;-75
2021/05/10 06:16:18;;;;;;;;;1.00;1.00;;;;;16.85;55.65;98292.34;4782586;29;104057;-78
2021/05/10 06:18:45;;;;;;;;;0.00;0.00;;;;;16.86;55.17;98299.47;4781955;29;102651;-78
2021/05/10 06:21:13;;;;;;;;;1.00;1.00;;;;;16.85;55.37;98295.06;4783267;29;103142;-79
2021/05/10 06:23:40;;;;;;;;;0.00;0.00;;;;;16.85;55.46;98292.34;4770020;29;102339;-78
2021/05/10 06:26:07;;;;;;;;;0.00;0.00;;;;;16.85;54.66;98286.88;4772828;29;104366;-78
2021/05/10 06:28:34;;;;;;;;;1.00;1.00;;;;;16.85;54.70;98292.34;4784239;29;102534;-78
2021/05/10 06:31:01;;;;;;;;;1.00;1.00;;;;;16.84;54.83;98285.22;4785859;29;102273;-79
2021/05/10 06:33:28;;;;;;;;;1.00;1.00;;;;;16.87;54.88;98289.38;4781906;29;102286;-79
2021/05/10 06:35:54;;;;;;;;;0.00;0.00;;;;;16.86;55.30;98277.63;4774714;29;104368;-78
2021/05/10 06:38:21;;;;;;;;;0.00;0.00;;;;;16.87;55.26;98273.81;4776806;29;103043;-78
2021/05/10 06:40:48;;;;;;;;;0.00;0.00;;;;;16.87;55.35;98279.28;4782655;29;102880;-78
2021/05/10 06:43:14;;;;;;;;;1.00;1.00;;;;;16.87;55.50;98279.28;4784050;29;103981;-76
2021/05/10 06:45:41;;;;;;;;;2.00;2.00;;;;;16.88;55.24;98280.94;4783431;29;104087;-75
2021/05/10 06:48:08;;;;;;;;;1.00;0.00;;;;;16.88;55.97;98283.66;4783727;29;102652;-75
2021/05/10 06:50:35;;;;;;;;;0.00;0.00;;;;;16.88;55.58;98272.75;4783453;29;102456;-75
2021/05/10 06:53:01;;;;;;;;;2.00;0.33;;;;;16.89;55.62;98273.53;4785832;29;103467;-74
2021/05/10 06:55:28;;;;;;;;;1.00;0.00;;;;;16.89;55.07;98268.91;4782564;29;104073;-75
2021/05/10 06:58:06;;;;;;;;;0.33;0.00;;;;;16.89;55.51;98274.38;4785072;29;103409;-74
2021/05/10 07:00:33;;;;;;;;;1.00;0.00;;;;;16.91;55.50;98285.06;4780354;29;102580;-74
2021/05/10 07:03:00;;;;;;;;;0.00;0.00;;;;;16.91;55.31;98277.69;4783139;29;103604;-74
2021/05/10 07:05:26;;;;;;;;;1.00;1.00;;;;;16.89;54.82;98282.56;4783853;29;104273;-74
2021/05/10 07:07:53;;;;;;;;;1.00;1.00;;;;;16.90;55.02;98278.75;4778292;29;102435;-75
2021/05/10 07:10:20;;;;;;;;;1.00;1.00;;;;;16.91;55.51;98282.31;4781851;29;103330;-74
2021/05/10 07:12:47;;;;;;;;;1.00;1.00;;;;;16.91;55.54;98272.22;4783112;29;103618;-74
2021/05/10 07:15:15;;;;;;;;;1.00;1.00;;;;;16.92;55.24;98275.78;4783028;29;104327;-75
2021/05/10 07:17:41;;;;;;;;;1.00;0.00;;;;;16.92;55.39;98282.09;4785169;29;102521;-79
2021/05/10 07:20:09;;;;;;;;;1.00;0.00;;;;;16.94;55.20;98281.81;4781118;29;102668;-79
2021/05/10 07:22:36;;;;;;;;;1.00;1.00;;;;;16.94;54.96;98290.00;4779024;29;102673;-79
2021/05/10 07:25:03;;;;;;;;;1.00;1.00;;;;;16.94;55.12;98284.56;4778617;29;103675;-78
2021/05/10 07:27:30;;;;;;;;;1.00;1.00;;;;;16.95;56.01;98291.66;4783352;29;102258;-78
2021/05/10 07:29:56;;;;;;;;;0.67;0.67;;;;;16.95;55.84;98275.28;4780971;29;102387;-78
2021/05/10 07:32:23;;;;;;;;;0.00;0.00;;;;;16.95;55.74;98287.03;4782284;29;102166;-78
2021/05/10 07:35:05;;;;;;;;;0.33;0.00;;;;;16.96;55.36;98282.41;4780859;29;104037;-77
2021/05/10 07:37:56;;;;;;;;;0.00;0.00;;;;;16.98;55.62;98287.59;4778036;29;102512;-79
2021/05/10 07:40:31;;;;;;;;;0.00;0.00;;;;;16.98;54.84;98287.59;4725006;29;103696;-79
2021/05/10 07:42:59;;;;;;;;;1.00;1.00;;;;;16.98;55.70;98290.34;4785749;29;102361;-78
2021/05/10 07:45:26;;;;;;;;;0.00;0.00;;;;;16.99;55.49;98279.16;4780173;29;104386;-78
2021/05/10 07:47:55;;;;;;;;;1.00;1.00;;;;;16.99;55.66;98281.91;4780683;29;102433;-78
2021/05/10 07:50:22;;;;;;;;;1.33;0.00;;;;;17.01;54.96;98289.84;4777571;29;102638;-77
2021/05/10 07:52:59;;;;;;;;;0.00;0.00;;;;;17.01;55.21;98284.41;4770788;29;102818;-77
2021/05/10 07:55:49;;;;;;;;;0.00;0.00;;;;;17.01;55.70;98295.31;4692204;29;104504;-77
2021/05/10 07:58:25;;;;;;;;;0.00;0.00;;;;;17.00;55.68;98283.56;4785668;29;102585;-75
2021/05/10 08:00:56;;;;;;;;;1.00;1.00;;;;;17.01;55.38;98284.41;4718509;29;103244;-77
2021/05/10 08:03:26;;;;;;;;;0.33;0.33;;;;;17.01;56.19;98279.75;4780082;29;102735;-78
2021/05/10 08:05:54;;;;;;;;;0.33;0.33;;;;;17.02;56.19;98289.59;4783002;29;103234;-78
2021/05/10 08:08:25;;;;;;;;;0.67;0.00;;;;;17.03;55.98;98280.31;4780655;29;103375;-78
2021/05/10 08:10:53;;;;;;;;;1.00;1.00;;;;;17.03;55.70;98283.06;4777260;29;102699;-78
2021/05/10 08:13:20;;;;;;;;;0.00;0.00;;;;;17.04;55.81;98279.25;4776079;29;102219;-77
2021/05/10 08:15:48;;;;;;;;;0.00;0.00;;;;;17.04;55.84;98284.72;4780209;29;103176;-74
2021/05/10 08:18:15;;;;;;;;;1.00;1.00;;;;;17.05;55.77;98282.81;4783095;29;102292;-75
2021/05/10 08:20:44;;;;;;;;;0.00;0.00;;;;;17.06;56.22;98287.22;4779240;29;103067;-74
2021/05/10 08:23:12;;;;;;;;;0.00;0.00;;;;;17.06;55.38;98271.66;4781660;29;102248;-74
2021/05/10 08:25:41;;;;;;;;;1.00;1.00;;;;;17.06;55.78;98277.13;4778080;29;104191;-74
2021/05/10 08:28:09;;;;;;;;;0.67;0.00;;;;;17.07;55.73;98277.91;4782147;29;102746;-74
2021/05/10 08:30:36;;;;;;;;;0.00;0.00;;;;;17.07;55.62;98284.19;4778135;29;102517;-74
2021/05/10 08:33:03;;;;;;;;;0.00;0.00;;;;;17.08;56.17;98285.03;4783618;29;102638;-74
2021/05/10 08:35:30;;;;;;;;;0.67;0.00;;;;;17.07;55.50;98278.75;4777702;29;104078;-74
2021/05/10 08:38:00;;;;;;;;;0.00;0.00;;;;;17.04;55.89;98271.06;4779747;29;102685;-74
2021/05/10 08:40:27;;;;;;;;;0.00;0.00;;;;;17.05;55.83;98274.63;4780960;29;102898;-74
2021/05/10 08:42:53;;;;;;;;;0.00;0.00;;;;;17.04;56.00;98279.25;4779953;29;102444;-74
2021/05/10 08:45:22;;;;;;;;;0.67;0.67;;;;;17.05;56.71;98280.09;4779883;29;104053;-78
2021/05/10 08:47:51;;;;;;;;;0.00;0.00;;;;;17.05;56.09;98280.09;4771450;29;102263;-77
2021/05/10 08:50:18;;;;;;;;;0.00;0.00;;;;;17.06;56.21;98276.28;4776990;29;102306;-77
2021/05/10 08:52:45;;;;;;;;;1.00;0.00;;;;;17.06;56.28;98279.00;4779527;29;102263;-78
2021/05/10 08:55:16;;;;;;;;;0.00;0.00;;;;;17.06;56.12;98276.28;4779990;29;104080;-77
2021/05/10 08:57:45;;;;;;;;;0.67;0.00;;;;;17.07;56.02;98280.63;4776335;29;102150;-78
2021/05/10 09:00:22;;;;;;;;;0.00;0.00;;;;;17.07;56.67;98275.19;4778651;29;105277;-78
2021/05/10 09:03:12;;;;;;;;;0.00;0.00;;;;;17.07;55.71;98275.19;4726556;29;103191;-77
2021/05/10 09:05:51;;;;;;;;;0.00;0.00;;;;;17.06;56.20;98273.53;4778003;29;103630;-78
2021/05/10 09:08:22;;;;;;;;;2.00;1.00;;;;;17.07;56.26;98270.53;4773246;29;103645;-78
2021/05/10 09:11:12;;;;;;;;;1.00;0.00;;;;;17.06;56.25;98265.34;4782516;29;102072;-77
2021/05/10 09:13:41;;;;;;;;;0.67;0.00;;;;;17.08;56.73;98263.19;4785553;29;102301;-78
2021/05/10 09:16:10;;;;;;;;;0.00;0.00;;;;;17.08;56.17;98277.66;4780850;29;103261;-74
2021/05/10 09:18:37;;;;;;;;;1.00;1.00;;;;;17.08;56.64;98266.75;4780693;29;102603;-74
2021/05/10 09:21:12;;;;;;;;;1.00;0.67;;;;;17.10;56.44;98263.78;4773282;29;103576;-74
2021/05/10 09:23:59;;;;;;;;;0.00;0.00;;;;;17.10;56.14;98264.59;4701620;29;102461;-74
2021/05/10 09:26:35;;;;;;;;;0.00;0.00;;;;;17.11;55.93;98249.03;4769923;29;103628;-74
2021/05/10 09:29:03;;;;;;;;;0.00;0.00;;;;;17.11;56.23;98251.78;4774082;29;102972;-74
2021/05/10 09:31:31;;;;;;;;;0.00;0.00;;;;;17.12;55.96;98253.41;4780589;29;102165;-74
2021/05/10 09:33:58;;;;;;;;;0.00;0.00;;;;;17.12;56.13;98251.50;4779686;29;105874;-74
2021/05/10 09:36:40;;;;;;;;;0.00;0.00;;;;;17.14;56.51;98245.78;4780771;29;103076;-74
2021/05/10 09:39:26;;;;;;;;;0.00;0.00;;;;;17.13;56.20;98238.66;4756718;29;103281;-74
2021/05/10 09:42:03;;;;;;;;;0.00;0.00;;;;;17.12;56.97;98242.47;4721742;29;103129;-74
2021/05/10 09:44:45;;;;;;;;;1.00;0.67;;;;;17.15;57.03;98247.47;4774319;29;103153;-77
2021/05/10 09:47:13;;;;;;;;;1.00;1.00;;;;;17.15;56.46;98242.00;4775014;29;103588;-78
2021/05/10 09:49:44;;;;;;;;;0.00;0.00;;;;;17.16;56.78;98238.16;4761100;29;103738;-78
2021/05/10 09:52:23;;;;;;;;;0.00;0.00;;;;;17.15;56.70;98244.72;4781229;29;102117;-78
2021/05/10 09:54:56;;;;;;;;;0.00;0.00;;;;;17.16;57.04;98243.63;4776197;29;102667;-77
2021/05/10 09:57:27;;;;;;;;;2.00;0.00;;;;;17.16;57.55;98238.97;4766733;29;103077;-80
2021/05/10 10:00:16;;;;;;;;;0.00;0.00;;;;;17.24;55.96;98235.00;4778849;29;102669;-78
2021/05/10 10:02:43;;;;;;;;;0.00;0.00;;;;;17.26;55.59;98227.38;4771756;29;102476;-78
2021/05/10 10:05:11;;;;;;;;;0.00;0.00;;;;;17.28;55.78;98230.69;4791052;29;102501;-78
2021/05/10 10:07:39;;;;;;;;;0.00;0.00;;;;;17.27;55.57;98235.31;4773665;29;103880;-78
2021/05/10 10:10:06;;;;;;;;;0.00;0.00;;;;;17.26;56.19;98227.38;4793019;29;102065;-78
2021/05/10 10:12:33;;;;;;;;;0.00;0.00;;;;;17.23;57.51;98226.00;4782322;29;102055;-78
2021/05/10 10:15:00;;;;;;;;;0.00;0.00;;;;;17.22;56.55;98232.53;4783348;29;106146;-78
2021/05/10 10:17:27;;;;;;;;;1.00;1.00;;;;;17.23;56.83;98227.88;4772671;29;104169;-78
2021/05/10 10:20:03;;;;;;;;;1.00;0.00;;;;;17.23;56.78;98227.88;4777713;29;102232;-78
2021/05/10 10:22:35;;;;;;;;;1.00;0.00;;;;;17.23;56.94;98214.22;4767235;29;104029;-78
2021/05/10 10:25:03;;;;;;;;;0.33;0.33;;;;;17.24;57.23;98227.66;4795894;29;102572;-78
2021/05/10 10:27:50;;;;;;;;;1.00;1.00;;;;;17.25;57.88;98218.34;4774422;29;110070;-75
2021/05/10 10:30:18;;;;;;;;;0.00;0.00;;;;;17.27;56.97;98216.19;4781141;29;102259;-78
2021/05/10 10:32:45;;;;;;;;;1.00;1.00;;;;;17.27;57.15;98221.66;4789822;29;103989;-78
2021/05/10 10:35:31;;;;;;;;;0.00;0.00;;;;;17.29;56.30;98218.69;4723751;29;102575;-79
2021/05/10 10:37:59;;;;;;;;;0.33;0.33;;;;;17.28;56.52;98211.56;4772056;29;104274;-79
2021/05/10 10:40:27;;;;;;;;;0.00;0.00;;;;;17.29;57.75;98214.03;4770981;29;102397;-78
2021/05/10 10:43:28;;;;;;;;;0.00;0.00;;;;;17.31;56.70;98213.78;4767266;29;102432;-78
2021/05/10 10:46:17;;;;;;;;;0.00;0.00;;;;;17.31;56.24;98211.03;4713123;29;103504;-78
2021/05/10 10:48:45;;;;;;;;;1.00;0.00;;;;;17.32;57.36;98218.16;4782930;29;104094;-78
2021/05/10 10:51:14;;;;;;;;;0.00;0.00;;;;;17.33;57.37;98215.19;4798394;29;102231;-78
2021/05/10 10:53:54;;;;;;;;;1.00;1.00;;;;;17.33;56.93;98206.16;4781673;29;102124;-79
2021/05/10 10:56:46;;;;;;;;;0.00;0.00;;;;;17.34;56.95;98205.91;4758968;29;102460;-77
2021/05/10 10:59:41;;;;;;;;;0.00;0.00;;;;;17.36;56.79;98194.72;4781500;29;104376;-78
2021/05/10 11:02:17;;;;;;;;;0.00;0.00;;;;;17.39;56.93;98205.97;4721760;29;102818;-78
2021/05/10 11:04:44;;;;;;;;;1.00;1.00;;;;;17.39;56.47;98195.03;4779985;29;102134;-78
2021/05/10 11:07:11;;;;;;;;;1.00;1.00;;;;;17.42;55.60;98204.66;4783282;29;103692;-78
2021/05/10 11:09:52;;;;;;;;;0.00;0.00;;;;;17.42;56.74;98201.06;4778813;29;104182;-78
2021/05/10 11:12:47;;;;;;;;;0.00;0.00;;;;;17.42;56.91;98209.28;4777906;29;102936;-78
2021/05/10 11:15:34;;;;;;;;;0.00;0.00;;;;;17.43;56.68;98200.81;4726493;29;102210;-78
2021/05/10 11:18:05;;;;;;;;;0.00;0.00;;;;;17.43;56.75;98198.06;4728121;29;102599;-78
2021/05/10 11:20:44;;;;;;;;;0.33;0.00;;;;;17.45;56.88;98212.31;4783669;29;104236;-78
2021/05/10 11:23:40;;;;;;;;;0.00;0.00;;;;;17.47;56.20;98198.41;4780918;29;102134;-79
2021/05/10 11:26:37;;;;;;;;;1.00;1.00;;;;;17.46;56.79;98194.84;4726334;29;102853;-79
2021/05/10 11:29:15;;;;;;;;;1.00;0.00;;;;;17.48;57.39;98198.13;4731527;29;102291;-78
2021/05/10 11:31:50;;;;;;;;;0.67;0.67;;;;;17.49;56.45;98197.06;4782954;29;107774;-78
2021/05/10 11:34:35;;;;;;;;;0.33;0.33;;;;;17.53;56.64;98200.09;4782965;29;102403;-78
2021/05/10 11:37:09;;;;;;;;;0.00;0.00;;;;;17.55;56.80;98187.84;4717839;29;102645;-78
2021/05/10 11:39:40;;;;;;;;;0.00;0.00;;;;;17.56;56.22;98183.22;4766797;29;103402;-79
2021/05/10 11:42:13;;;;;;;;;0.00;0.00;;;;;17.57;56.79;98166.53;4782633;29;104042;-79
2021/05/10 11:44:46;;;;;;;;;1.00;1.00;;;;;17.59;56.60;98182.72;4781818;29;102287;-75
2021/05/10 11:47:34;;;;;;;;;1.00;1.00;;;;;17.61;56.57;98184.09;4723869;29;102376;-75
2021/05/10 11:50:10;;;;;;;;;0.33;0.33;;;;;17.63;57.54;98179.22;4782837;29;103407;-75